createdAt,value
2022-11-16T00:02:07.762Z,6.88
2022-11-16T00:04:34.911Z,7.28
2022-11-16T00:07:05.466Z,6.63
2022-11-16T00:09:32.923Z,7.28
2022-11-16T00:12:01.777Z,7.25
2022-11-16T00:14:30.410Z,6.60
2022-11-16T00:19:25.228Z,6.13
2022-11-16T00:21:52.756Z,7.43
2022-11-16T00:24:20.997Z,6.50
2022-11-16T00:26:49.986Z,6.45
2022-11-16T00:29:19.641Z,6.13
2022-11-16T00:31:47.364Z,6.50
2022-11-16T00:34:14.687Z,7.37
2022-11-16T00:36:41.564Z,6.65
2022-11-16T00:39:13.610Z,7.07
2022-11-16T00:41:41.726Z,6.00
2022-11-16T00:44:08.918Z,6.80
2022-11-16T00:46:35.728Z,6.13
2022-11-16T00:49:02.578Z,6.15
2022-11-16T00:51:29.315Z,6.30
2022-11-16T00:53:56.074Z,6.45
2022-11-16T00:56:23.028Z,6.88
2022-11-16T00:58:50.034Z,6.40
2022-11-16T01:01:17.681Z,6.60
2022-11-16T01:03:44.555Z,6.40
2022-11-16T01:06:12.682Z,6.80
2022-11-16T01:08:40.586Z,7.07
2022-11-16T01:11:27.083Z,6.90
2022-11-16T01:13:54.626Z,6.82
2022-11-16T01:16:22.412Z,6.50
2022-11-16T01:18:50.414Z,7.00
2022-11-16T01:21:17.805Z,7.07
2022-11-16T01:23:45.039Z,6.63
2022-11-16T01:26:12.172Z,6.38
2022-11-16T01:28:39.350Z,6.82
2022-11-16T01:31:06.549Z,6.45
2022-11-16T01:33:33.722Z,7.13
2022-11-16T01:36:00.841Z,6.93
2022-11-16T01:38:29.929Z,7.03
2022-11-16T01:40:57.501Z,6.75
2022-11-16T01:43:25.593Z,6.28
2022-11-16T01:45:52.782Z,5.97
2022-11-16T01:48:22.788Z,6.88
2022-11-16T01:50:50.266Z,5.78
2022-11-16T01:53:17.487Z,6.22
2022-11-16T01:55:45.477Z,6.45
2022-11-16T01:58:15.566Z,6.38
2022-11-16T02:00:42.330Z,6.70
2022-11-16T02:03:09.002Z,7.00
2022-11-16T02:06:10.548Z,6.05
2022-11-16T02:09:14.477Z,6.47
2022-11-16T02:12:02.029Z,5.97
2022-11-16T02:14:46.794Z,5.83
2022-11-16T02:17:52.667Z,6.32
2022-11-16T02:20:40.989Z,5.95
2022-11-16T02:23:54.938Z,6.53
2022-11-16T02:26:24.419Z,6.20
2022-11-16T02:29:13.171Z,6.13
2022-11-16T02:31:46.990Z,6.28
2022-11-16T02:34:17.252Z,6.40
2022-11-16T02:36:47.214Z,6.22
2022-11-16T02:39:19.147Z,6.28
2022-11-16T02:41:49.695Z,6.55
2022-11-16T02:44:20.879Z,5.68
2022-11-16T02:46:51.552Z,5.95
2022-11-16T02:49:19.490Z,6.55
2022-11-16T02:51:47.575Z,5.80
2022-11-16T02:54:19.910Z,6.18
2022-11-16T02:57:18.799Z,6.57
2022-11-16T02:59:50.413Z,6.30
2022-11-16T03:02:50.956Z,6.50
2022-11-16T03:05:41.119Z,6.93
2022-11-16T03:08:19.959Z,7.20
2022-11-16T03:11:10.100Z,6.28
2022-11-16T03:13:38.455Z,6.82
2022-11-16T03:16:12.119Z,6.93
2022-11-16T03:18:40.869Z,6.90
2022-11-16T03:21:30.488Z,6.57
2022-11-16T03:23:57.667Z,6.90
2022-11-16T03:26:31.995Z,7.38
2022-11-16T03:29:15.843Z,7.50
2022-11-16T03:31:50.024Z,7.70
2022-11-16T03:34:20.181Z,7.80
2022-11-16T03:36:50.387Z,7.72
2022-11-16T03:39:25.851Z,7.43
2022-11-16T03:41:54.652Z,7.13
2022-11-16T03:44:22.114Z,7.10
2022-11-16T03:46:49.912Z,7.32
2022-11-16T03:49:20.204Z,8.10
2022-11-16T03:51:46.982Z,7.88
2022-11-16T03:54:13.735Z,7.20
2022-11-16T03:56:40.466Z,8.55
2022-11-16T03:59:07.237Z,8.70
2022-11-16T04:01:33.910Z,8.25
2022-11-16T04:04:00.620Z,7.95
2022-11-16T04:06:46.300Z,8.32
2022-11-16T04:09:51.489Z,8.57
2022-11-16T04:12:36.641Z,8.10
2022-11-16T04:15:22.407Z,8.45
2022-11-16T04:18:07.864Z,7.95
2022-11-16T04:20:53.386Z,7.43
2022-11-16T04:23:39.012Z,7.90
2022-11-16T04:26:08.044Z,7.47
2022-11-16T04:28:35.702Z,7.63
2022-11-16T04:31:23.098Z,7.68
2022-11-16T04:34:09.655Z,7.32
2022-11-16T04:36:55.653Z,7.10
2022-11-16T04:39:22.953Z,7.10
2022-11-16T04:42:08.874Z,5.82
2022-11-16T04:44:55.384Z,6.13
2022-11-16T04:47:22.523Z,5.10
2022-11-16T04:49:49.682Z,4.93
2022-11-16T04:52:16.797Z,5.25
2022-11-16T04:54:43.855Z,5.22
2022-11-16T04:57:11.043Z,5.40
2022-11-16T04:59:38.178Z,4.97
2022-11-16T05:02:08.333Z,5.32
2022-11-16T05:04:40.097Z,4.85
2022-11-16T05:07:11.876Z,5.07
2022-11-16T05:09:49.427Z,4.82
2022-11-16T05:12:22.069Z,4.93
2022-11-16T05:14:49.082Z,5.00
2022-11-16T05:17:17.159Z,5.32
2022-11-16T05:20:02.399Z,4.85
2022-11-16T05:22:29.474Z,5.18
2022-11-16T05:24:56.139Z,5.28
2022-11-16T05:27:23.966Z,4.72
2022-11-16T05:29:51.387Z,5.40
2022-11-16T05:32:20.021Z,4.50
2022-11-16T05:37:13.949Z,5.20
2022-11-16T05:39:40.788Z,5.00
2022-11-16T05:42:08.433Z,5.28
2022-11-16T05:44:35.199Z,5.40
2022-11-16T05:47:01.938Z,5.43
2022-11-16T05:49:28.820Z,5.70
2022-11-16T05:51:55.519Z,5.72
2022-11-16T05:54:24.939Z,5.78
2022-11-16T05:56:53.022Z,6.00
2022-11-16T05:59:21.211Z,5.50
2022-11-16T06:01:48.271Z,6.60
2022-11-16T06:04:15.366Z,6.43
2022-11-16T06:06:42.293Z,6.32
2022-11-16T06:09:11.718Z,6.95
2022-11-16T06:11:38.458Z,6.22
2022-11-16T06:14:05.607Z,6.50
2022-11-16T06:16:32.792Z,6.88
2022-11-16T06:19:00.077Z,6.95
2022-11-16T06:21:26.912Z,6.90
2022-11-16T06:23:53.745Z,7.47
2022-11-16T06:26:20.570Z,8.35
2022-11-16T06:28:47.362Z,7.72
2022-11-16T06:31:14.123Z,7.60
2022-11-16T06:33:40.915Z,6.75
2022-11-16T06:36:08.080Z,7.63
2022-11-16T06:38:35.060Z,8.02
2022-11-16T06:41:01.974Z,8.32
2022-11-16T06:43:28.850Z,7.85
2022-11-16T06:45:58.376Z,7.63
2022-11-16T06:48:25.430Z,9.30
2022-11-16T06:50:53.050Z,9.50
2022-11-16T06:53:23.472Z,9.50
2022-11-16T06:55:52.681Z,9.05
2022-11-16T06:58:19.319Z,9.98
2022-11-16T07:00:46.011Z,10.27
2022-11-16T07:03:12.696Z,9.55
2022-11-16T07:05:41.699Z,9.60
2022-11-16T07:08:09.018Z,10.30
2022-11-16T07:10:36.253Z,10.52
2022-11-16T07:13:03.691Z,9.63
2022-11-16T07:15:31.166Z,10.35
2022-11-16T07:18:03.478Z,10.15
2022-11-16T07:20:30.206Z,9.90
2022-11-16T07:22:59.833Z,10.13
2022-11-16T07:25:26.491Z,9.70
2022-11-16T07:27:53.181Z,9.30
2022-11-16T07:30:19.984Z,8.27
2022-11-16T07:32:46.623Z,9.00
2022-11-16T07:35:13.321Z,8.93
2022-11-16T07:37:39.964Z,7.47
2022-11-16T07:40:07.420Z,6.70
2022-11-16T07:42:34.066Z,6.38
2022-11-16T07:45:00.710Z,5.80
2022-11-16T07:47:27.386Z,6.30
2022-11-16T07:49:54.046Z,4.95
2022-11-16T07:52:20.739Z,5.30
2022-11-16T07:54:47.405Z,4.50
2022-11-16T07:57:14.069Z,4.63
2022-11-16T07:59:40.763Z,4.15
2022-11-16T08:02:08.854Z,4.30
2022-11-16T08:04:35.617Z,3.58
2022-11-16T08:07:02.399Z,3.45
2022-11-16T08:09:29.058Z,4.18
2022-11-16T08:11:55.760Z,3.45
2022-11-16T08:14:22.453Z,3.05
2022-11-16T08:16:49.116Z,3.13
2022-11-16T08:19:15.815Z,3.28
2022-11-16T08:21:42.484Z,2.88
2022-11-16T08:24:09.502Z,3.33
2022-11-16T08:26:36.275Z,3.08
2022-11-16T08:29:03.103Z,2.80
2022-11-16T08:31:30.096Z,2.90
2022-11-16T08:33:59.202Z,2.63
2022-11-16T08:36:27.043Z,2.85
2022-11-16T08:38:54.154Z,3.08
2022-11-16T08:41:20.991Z,2.97
2022-11-16T08:43:47.787Z,3.00
2022-11-16T08:46:15.693Z,2.70
2022-11-16T08:48:42.585Z,3.40
2022-11-16T08:51:20.367Z,2.78
2022-11-16T08:53:48.474Z,3.13
2022-11-16T08:56:17.779Z,3.40
2022-11-16T08:58:46.819Z,3.63
2022-11-16T09:01:16.968Z,3.80
2022-11-16T09:03:44.043Z,3.30
2022-11-16T09:06:11.814Z,3.28
2022-11-16T09:08:40.355Z,3.63
2022-11-16T09:11:08.863Z,4.05
2022-11-16T09:13:35.631Z,3.88
2022-11-16T09:16:04.524Z,3.80
2022-11-16T09:18:32.327Z,3.60
2022-11-16T09:20:59.416Z,3.45
2022-11-16T09:23:26.264Z,3.10
2022-11-16T09:25:53.523Z,3.30
2022-11-16T09:28:21.443Z,3.70
2022-11-16T09:30:51.100Z,3.50
2022-11-16T09:33:18.284Z,3.92
2022-11-16T09:35:45.112Z,4.03
2022-11-16T09:38:16.038Z,3.70
2022-11-16T09:40:47.824Z,3.80
2022-11-16T09:43:51.697Z,4.00
2022-11-16T09:46:23.851Z,3.53
2022-11-16T09:48:51.234Z,3.60
2022-11-16T09:51:21.034Z,3.33
2022-11-16T09:54:10.576Z,3.20
2022-11-16T09:56:40.322Z,3.17
2022-11-16T09:59:18.386Z,3.78
2022-11-16T10:01:51.263Z,3.47
2022-11-16T10:04:37.079Z,3.08
2022-11-16T10:07:16.374Z,3.45
2022-11-16T10:09:45.103Z,3.05
2022-11-16T10:15:01.546Z,3.50
2022-11-16T10:18:06.761Z,2.78
2022-11-16T10:20:49.766Z,3.35
2022-11-16T10:23:36.102Z,2.70
2022-11-16T10:26:14.655Z,3.15
2022-11-16T10:29:10.238Z,2.47
2022-11-16T10:31:43.511Z,2.70
2022-11-16T10:34:18.565Z,2.58
2022-11-16T10:36:46.023Z,2.53
2022-11-16T10:39:14.959Z,2.97
2022-11-16T10:41:43.694Z,2.50
2022-11-16T10:46:46.797Z,2.33
2022-11-16T10:49:22.036Z,3.03
2022-11-16T10:51:48.872Z,2.13
2022-11-16T10:54:17.639Z,2.22
2022-11-16T10:57:03.477Z,2.20
2022-11-16T10:59:44.983Z,2.03
2022-11-16T11:02:35.959Z,2.28
2022-11-16T11:05:20.373Z,2.10
2022-11-16T11:07:55.363Z,2.08
2022-11-16T11:10:33.199Z,1.88
2022-11-16T11:13:20.714Z,3.05
2022-11-16T11:15:50.374Z,1.65
2022-11-16T11:18:23.229Z,2.05
2022-11-16T11:21:14.769Z,2.05
2022-11-16T11:23:49.111Z,2.65
2022-11-16T11:26:40.516Z,2.00
2022-11-16T11:29:25.123Z,1.90
2022-11-16T11:31:57.100Z,2.47
2022-11-16T11:34:34.887Z,1.83
2022-11-16T11:37:03.595Z,1.88
2022-11-16T11:39:39.187Z,1.80
2022-11-16T11:42:15.135Z,1.40
2022-11-16T11:44:51.897Z,1.88
2022-11-16T11:50:19.647Z,1.50
2022-11-16T11:53:23.867Z,1.70
2022-11-16T11:55:58.140Z,1.52
2022-11-16T11:58:34.191Z,1.80
2022-11-16T12:01:26.010Z,1.50
2022-11-16T12:04:30.732Z,2.55
2022-11-16T12:07:00.796Z,2.40
2022-11-16T12:09:50.716Z,1.90
2022-11-16T12:12:30.494Z,2.30
2022-11-16T12:15:19.245Z,1.58
2022-11-16T12:17:51.766Z,2.05
2022-11-16T12:20:28.893Z,1.50
2022-11-16T12:23:17.126Z,1.67
2022-11-16T12:25:56.288Z,1.67
2022-11-16T12:28:32.849Z,1.95
2022-11-16T12:31:33.526Z,1.52
2022-11-16T12:34:44.514Z,1.80
2022-11-16T12:37:43.371Z,2.13
2022-11-16T12:40:15.903Z,2.10
2022-11-16T12:42:55.318Z,1.42
2022-11-16T12:45:46.279Z,1.63
2022-11-16T12:48:31.708Z,1.60
2022-11-16T12:51:31.603Z,1.95
2022-11-16T12:54:21.900Z,1.83
2022-11-16T12:57:16.619Z,1.50
2022-11-16T13:00:06.373Z,2.25
2022-11-16T13:02:38.824Z,1.42
2022-11-16T13:05:23.242Z,1.30
2022-11-16T13:07:58.096Z,1.13
2022-11-16T13:10:31.448Z,1.77
2022-11-16T13:15:51.657Z,1.48
2022-11-16T13:18:20.698Z,1.83
2022-11-16T13:21:04.825Z,1.55
2022-11-16T13:23:31.906Z,1.92
2022-11-16T13:26:10.420Z,1.35
2022-11-16T13:28:50.078Z,1.38
2022-11-16T13:31:28.799Z,1.50
2022-11-16T13:34:02.191Z,1.20
2022-11-16T13:36:40.508Z,1.15
2022-11-16T13:39:08.415Z,1.60
2022-11-16T13:41:37.777Z,1.35
2022-11-16T13:44:26.381Z,1.52
2022-11-16T13:47:04.789Z,1.52
2022-11-16T13:52:40.410Z,1.17
2022-11-16T13:55:15.827Z,1.25
2022-11-16T13:57:51.423Z,1.35
2022-11-16T14:00:33.654Z,1.20
2022-11-16T14:03:15.181Z,1.20
2022-11-16T14:05:44.400Z,1.20
2022-11-16T14:08:19.990Z,1.00
2022-11-16T14:10:52.182Z,1.27
2022-11-16T14:13:47.362Z,1.42
2022-11-16T14:16:20.033Z,1.70
2022-11-16T14:18:47.482Z,1.55
2022-11-16T14:21:20.539Z,1.70
2022-11-16T14:23:56.302Z,1.63
2022-11-16T14:26:44.750Z,1.48
2022-11-16T14:31:52.351Z,1.75
2022-11-16T14:34:41.616Z,1.60
2022-11-16T14:37:36.262Z,1.20
2022-11-16T14:40:16.736Z,1.42
2022-11-16T14:45:49.314Z,1.67
2022-11-16T14:48:19.204Z,1.70
2022-11-16T14:50:59.227Z,1.45
2022-11-16T14:53:27.676Z,1.70
2022-11-16T14:56:13.241Z,1.92
2022-11-16T14:58:40.236Z,1.20
2022-11-16T15:01:14.536Z,1.55
2022-11-16T15:03:52.703Z,1.42
2022-11-16T15:06:26.994Z,0.90
2022-11-16T15:08:59.238Z,1.70
2022-11-16T15:11:49.798Z,1.15
2022-11-16T15:14:26.678Z,1.48
2022-11-16T15:16:55.411Z,1.42
2022-11-16T15:19:24.545Z,1.42
2022-11-16T15:21:59.744Z,1.27
2022-11-16T15:24:34.165Z,1.17
2022-11-16T15:27:06.813Z,1.42
2022-11-16T15:29:33.512Z,1.70
2022-11-16T15:32:00.198Z,1.52
2022-11-16T15:34:26.958Z,1.60
2022-11-16T15:36:53.773Z,1.27
2022-11-16T15:39:23.803Z,1.50
2022-11-16T15:41:51.262Z,1.77
2022-11-16T15:44:21.288Z,1.92
2022-11-16T15:46:54.971Z,1.85
2022-11-16T15:49:31.196Z,1.80
2022-11-16T15:51:59.592Z,2.08
2022-11-16T15:54:53.734Z,2.00
2022-11-16T15:57:22.912Z,1.40
2022-11-16T15:59:55.163Z,1.75
2022-11-16T16:02:29.651Z,1.90
2022-11-16T16:04:56.731Z,1.85
2022-11-16T16:07:39.859Z,1.65
2022-11-16T16:10:19.025Z,1.80
2022-11-16T16:12:57.289Z,1.75
2022-11-16T16:15:25.451Z,1.60
2022-11-16T16:17:53.948Z,1.95
2022-11-16T16:20:24.408Z,2.10
2022-11-16T16:22:52.135Z,1.92
2022-11-16T16:25:36.115Z,2.17
2022-11-16T16:28:03.498Z,2.30
2022-11-16T16:30:31.523Z,2.10
2022-11-16T16:32:58.687Z,2.15
2022-11-16T16:35:26.542Z,2.33
2022-11-16T16:38:01.168Z,2.30
2022-11-16T16:40:28.803Z,2.45
2022-11-16T16:42:56.603Z,2.38
2022-11-16T16:45:37.084Z,2.97
2022-11-16T16:48:06.832Z,2.67
2022-11-16T16:50:33.644Z,2.50
2022-11-16T16:53:00.623Z,2.80
2022-11-16T16:55:27.880Z,2.67
2022-11-16T16:57:57.483Z,3.25
2022-11-16T17:00:24.510Z,9.75
2022-11-16T17:02:51.526Z,11.15
2022-11-16T17:05:18.275Z,11.98
2022-11-16T17:07:45.077Z,11.88
2022-11-16T17:10:11.753Z,5.05
2022-11-16T17:12:38.444Z,6.82
2022-11-16T17:15:05.580Z,6.45
2022-11-16T17:17:32.238Z,5.35
2022-11-16T17:19:59.014Z,6.30
2022-11-16T17:22:25.690Z,4.60
2022-11-16T17:24:52.370Z,8.45
2022-11-16T17:27:19.056Z,4.30
2022-11-16T17:29:45.690Z,5.00
2022-11-16T17:32:12.409Z,4.78
2022-11-16T17:34:41.378Z,4.75
2022-11-16T17:37:08.083Z,4.15
2022-11-16T17:39:35.338Z,4.10
2022-11-16T17:42:02.083Z,4.80
2022-11-16T17:44:28.789Z,4.82
2022-11-16T17:46:55.443Z,9.27
2022-11-16T17:49:22.148Z,16.05
2022-11-16T17:51:49.038Z,9.32
2022-11-16T17:54:15.775Z,11.48
2022-11-16T17:56:42.460Z,10.25
2022-11-16T17:59:09.232Z,11.23
2022-11-16T18:01:36.029Z,7.88
2022-11-16T18:04:03.039Z,4.90
2022-11-16T18:06:29.753Z,5.35
2022-11-16T18:08:57.101Z,6.05
2022-11-16T18:11:28.257Z,6.40
2022-11-16T18:13:57.049Z,6.25
2022-11-16T18:16:26.810Z,8.00
2022-11-16T18:18:59.044Z,8.43
2022-11-16T18:21:26.419Z,7.35
2022-11-16T18:23:53.103Z,7.70
2022-11-16T18:26:22.467Z,7.53
2022-11-16T18:28:50.478Z,6.32
2022-11-16T18:31:19.724Z,6.57
2022-11-16T18:33:49.057Z,6.03
2022-11-16T18:36:16.812Z,5.68
2022-11-16T18:38:43.625Z,4.90
2022-11-16T18:41:13.069Z,5.60
2022-11-16T18:43:41.269Z,4.00
2022-11-16T18:46:08.732Z,4.03
2022-11-16T18:48:35.563Z,4.18
2022-11-16T18:51:04.246Z,3.83
2022-11-16T18:55:58.977Z,3.33
2022-11-16T19:01:16.003Z,3.90
2022-11-16T19:03:43.141Z,3.58
2022-11-16T19:06:11.792Z,3.30
2022-11-16T19:11:08.694Z,3.40
2022-11-16T19:13:36.085Z,3.58
2022-11-16T19:16:03.213Z,3.92
2022-11-16T19:18:30.018Z,2.80
2022-11-16T19:21:08.175Z,3.90
2022-11-16T19:23:45.952Z,6.40
2022-11-16T19:26:14.875Z,4.00
2022-11-16T19:28:43.767Z,3.53
2022-11-16T19:31:13.028Z,3.00
2022-11-16T19:33:40.732Z,3.00
2022-11-16T19:36:09.996Z,3.05
2022-11-16T19:38:37.032Z,2.58
2022-11-16T19:41:04.389Z,5.47
2022-11-16T19:43:31.471Z,6.45
2022-11-16T19:46:24.841Z,10.35
2022-11-16T19:48:52.224Z,6.30
2022-11-16T19:51:29.361Z,9.45
2022-11-16T19:53:56.622Z,11.70
2022-11-16T19:56:24.072Z,8.38
2022-11-16T19:58:51.366Z,18.38
2022-11-16T20:01:25.451Z,13.15
2022-11-16T20:03:52.383Z,4.53
2022-11-16T20:06:24.979Z,4.05
2022-11-16T20:08:53.873Z,5.50
2022-11-16T20:11:26.194Z,5.80
2022-11-16T20:13:54.784Z,3.60
2022-11-16T20:18:51.242Z,2.90
2022-11-16T20:21:29.159Z,2.80
2022-11-16T20:24:01.539Z,3.00
2022-11-16T20:26:33.781Z,2.60
2022-11-16T20:29:00.543Z,1.98
2022-11-16T20:31:29.860Z,3.05
2022-11-16T20:34:02.966Z,2.35
2022-11-16T20:36:31.039Z,3.40
2022-11-16T20:38:59.045Z,2.42
2022-11-16T20:41:30.419Z,2.10
2022-11-16T20:43:58.874Z,3.10
2022-11-16T20:46:27.779Z,2.28
2022-11-16T20:48:57.056Z,2.22
2022-11-16T20:51:23.785Z,2.30
2022-11-16T20:53:50.794Z,2.00
2022-11-16T20:56:19.273Z,2.03
2022-11-16T20:58:46.593Z,2.00
2022-11-16T21:01:15.983Z,2.10
2022-11-16T21:03:44.549Z,2.35
2022-11-16T21:06:12.175Z,1.85
2022-11-16T21:08:40.121Z,1.83
2022-11-16T21:11:11.801Z,1.80
2022-11-16T21:13:57.178Z,2.00
2022-11-16T21:16:23.936Z,2.22
2022-11-16T21:18:50.589Z,2.00
2022-11-16T21:21:17.229Z,2.08
2022-11-16T21:23:47.286Z,2.13
2022-11-16T21:26:15.161Z,2.03
2022-11-16T21:28:44.715Z,1.95
2022-11-16T21:31:17.638Z,2.63
2022-11-16T21:33:45.139Z,2.00
2022-11-16T21:36:17.132Z,2.08
2022-11-16T21:38:44.448Z,2.47
2022-11-16T21:41:13.405Z,2.03
2022-11-16T21:43:43.952Z,2.35
2022-11-16T21:46:30.025Z,2.00
2022-11-16T21:48:57.689Z,2.55
2022-11-16T21:51:26.823Z,2.05
2022-11-16T21:53:54.128Z,2.22
2022-11-16T21:56:23.997Z,2.53
2022-11-16T21:58:52.695Z,1.95
2022-11-16T22:01:19.766Z,3.55
2022-11-16T22:03:46.567Z,2.70
2022-11-16T22:06:34.145Z,2.88
2022-11-16T22:09:00.919Z,2.87
2022-11-16T22:11:28.046Z,2.22
2022-11-16T22:13:54.912Z,2.20
2022-11-16T22:16:23.332Z,2.90
2022-11-16T22:18:50.372Z,1.67
2022-11-16T22:21:17.307Z,2.58
2022-11-16T22:23:44.171Z,2.17
2022-11-16T22:26:13.382Z,2.72
2022-11-16T22:28:40.588Z,2.30
2022-11-16T22:31:14.896Z,3.05
2022-11-16T22:33:41.982Z,2.30
2022-11-16T22:36:13.238Z,2.78
2022-11-16T22:38:40.081Z,2.40
2022-11-16T22:41:06.945Z,2.22
2022-11-16T22:43:34.129Z,2.47
2022-11-16T22:46:03.129Z,2.83
2022-11-16T22:48:35.213Z,2.30
2022-11-16T22:51:14.904Z,2.67
2022-11-16T22:53:41.624Z,3.13
2022-11-16T22:56:09.981Z,2.58
2022-11-16T22:58:37.755Z,2.58
2022-11-16T23:01:08.674Z,2.35
2022-11-16T23:03:36.017Z,2.20
2022-11-16T23:06:03.982Z,2.33
2022-11-16T23:08:31.316Z,2.90
2022-11-16T23:11:22.389Z,2.85
2022-11-16T23:14:08.485Z,2.13
2022-11-16T23:16:36.024Z,2.47
2022-11-16T23:19:02.991Z,2.10
2022-11-16T23:21:48.493Z,2.30
2022-11-16T23:24:34.125Z,2.22
2022-11-16T23:27:22.954Z,2.40
2022-11-16T23:29:49.884Z,2.03
2022-11-16T23:32:16.628Z,2.42
2022-11-16T23:34:43.297Z,2.47
2022-11-16T23:37:09.954Z,2.80
2022-11-16T23:39:36.620Z,2.78
2022-11-16T23:42:22.266Z,2.72
2022-11-16T23:44:49.058Z,2.63
2022-11-16T23:47:15.901Z,2.17
2022-11-16T23:49:42.595Z,2.60
2022-11-16T23:52:09.330Z,2.47
2022-11-16T23:54:36.027Z,2.30
2022-11-16T23:57:02.911Z,2.83
2022-11-16T23:59:29.633Z,2.80
